Terminal Aerodrome Forecast
Issued by NWS

Current Version | Previous Version | Text Only | Print | Product List | Glossary On
Versions: 1 2 3 4 5 6 7 8 9 10 11 12 13 14 15 16 17 18 19 20
000
FTUS41 KLWX 261503 AAA
TAFMTN
TAF AMD
KMTN 261503Z 2615/2712 27010KT P6SM FEW100 SCT200
     FM262300 VRB04KT P6SM SCT090 BKN200
     FM271000 04005KT 5SM -RA BKN025 OVC050=

USA.gov is the U.S. government's official web portal to all federal, state and local government web resources and services.